Time;durP1;ratioP1;P1;durP2;ratioP2;P2;SDS_P1;SDS_P2;PMS_P1;PMS_P2;Temp;Humidity;BMP_temperature;BMP_pressure;BME280_temperature;BME280_humidity;BME280_pressure;Samples;Min_cycle;Max_cycle;Signal;HPM_P1;HPM_P2
2022/01/19 00:00:56;;;;;;;50.30;27.17;;;;;;;3.82;100.00;103262.09;4894482;29;20194;-63
2022/01/19 00:03:22;;;;;;;50.47;27.83;;;;;;;3.80;100.00;103246.31;4894118;29;20495;-64
2022/01/19 00:05:49;;;;;;;48.42;27.35;;;;;;;3.81;100.00;103234.09;4894647;29;20391;-63
2022/01/19 00:08:19;;;;;;;48.30;26.83;;;;;;;3.81;100.00;103236.72;4893706;29;20342;-64
2022/01/19 00:10:45;;;;;;;55.03;27.63;;;;;;;3.80;100.00;103235.84;4893512;29;20051;-63
2022/01/19 00:13:12;;;;;;;50.65;28.05;;;;;;;3.80;100.00;103217.50;4895559;29;20115;-64
2022/01/19 00:15:38;;;;;;;51.10;28.10;;;;;;;3.81;100.00;103207.88;4893708;29;20043;-63
2022/01/19 00:18:03;;;;;;;55.13;29.08;;;;;;;3.82;100.00;103199.19;4894094;29;20032;-63
2022/01/19 00:20:31;;;;;;;59.63;30.85;;;;;;;3.80;100.00;103204.41;4891068;29;20024;-63
2022/01/19 00:22:58;;;;;;;47.95;28.75;;;;;;;3.78;100.00;103200.88;4893913;29;20032;-63
2022/01/19 00:25:23;;;;;;;56.33;29.95;;;;;;;3.78;100.00;103202.59;4893762;29;20043;-63
2022/01/19 00:27:49;;;;;;;54.67;29.77;;;;;;;3.77;100.00;103195.59;4893897;29;20032;-63
2022/01/19 00:30:16;;;;;;;52.90;29.00;;;;;;;3.78;100.00;103187.75;4874582;29;20740;-64
2022/01/19 00:32:41;;;;;;;53.97;29.10;;;;;;;3.75;100.00;103181.53;4894799;29;21543;-63
2022/01/19 00:35:09;;;;;;;55.83;29.73;;;;;;;3.75;100.00;103171.97;4894066;29;20047;-64
2022/01/19 00:37:35;;;;;;;57.22;28.52;;;;;;;3.75;100.00;103160.59;4893847;29;20044;-63
2022/01/19 00:40:00;;;;;;;49.45;26.73;;;;;;;3.73;100.00;103152.72;4893481;29;20124;-63
2022/01/19 00:42:26;;;;;;;52.25;25.48;;;;;;;3.73;100.00;103136.09;4894517;29;20054;-63
2022/01/19 00:44:52;;;;;;;52.47;27.10;;;;;;;3.73;100.00;103123.00;4894179;29;20067;-63
2022/01/19 00:47:17;;;;;;;45.75;25.27;;;;;;;3.73;100.00;103115.13;4894287;29;20634;-63
2022/01/19 00:49:43;;;;;;;51.85;27.80;;;;;;;3.72;100.00;103110.75;4894353;29;20035;-63
2022/01/19 00:52:12;;;;;;;49.75;27.83;;;;;;;3.70;100.00;103089.75;4892250;29;20042;-63
2022/01/19 00:54:38;;;;;;;48.40;24.88;;;;;;;3.70;100.00;103096.75;4893373;29;20594;-63
2022/01/19 00:57:04;;;;;;;52.22;27.92;;;;;;;3.69;100.00;103090.59;4890100;29;20084;-63
2022/01/19 00:59:30;;;;;;;51.10;28.98;;;;;;;3.66;100.00;103085.31;4894223;29;20256;-63
2022/01/19 01:01:56;;;;;;;50.65;28.70;;;;;;;3.67;100.00;103085.31;4876077;29;20032;-63
2022/01/19 01:04:21;;;;;;;53.90;29.27;;;;;;;3.65;100.00;103078.31;4892194;29;20047;-63
2022/01/19 01:06:47;;;;;;;50.85;24.98;;;;;;;3.64;100.00;103080.03;4892959;29;20040;-63
2022/01/19 01:09:12;;;;;;;47.85;26.95;;;;;;;3.60;100.00;103082.56;4894989;29;20451;-63
2022/01/19 01:11:47;;;;;;;47.95;26.80;;;;;;;3.56;100.00;103065.03;4893489;29;20043;-63
2022/01/19 01:16:57;;;;;;;43.42;24.40;;;;;;;3.52;100.00;103043.13;4891033;29;20152;-63
2022/01/19 01:19:23;;;;;;;56.03;26.90;;;;;;;3.51;100.00;103036.13;4893448;29;20031;-63
2022/01/19 01:21:48;;;;;;;50.15;25.70;;;;;;;3.50;100.00;103035.22;4889598;29;21566;-64
2022/01/19 01:24:14;;;;;;;57.15;28.13;;;;;;;3.51;100.00;103030.88;4891604;29;20067;-63
2022/01/19 01:26:39;;;;;;;53.58;25.02;;;;;;;3.48;100.00;103020.38;4892376;29;20040;-63
2022/01/19 01:29:05;;;;;;;61.17;29.13;;;;;;;3.44;100.00;103019.41;4892914;29;21666;-63
2022/01/19 01:31:31;;;;;;;65.53;27.70;;;;;;;3.46;100.00;103024.66;4892675;29;20767;-63
2022/01/19 01:33:56;;;;;;;61.33;27.27;;;;;;;3.46;100.00;103027.28;4870922;29;20040;-63
2022/01/19 01:36:22;;;;;;;64.05;27.30;;;;;;;3.44;100.00;103034.25;4892686;29;20533;-63
2022/01/19 01:38:47;;;;;;;68.53;29.08;;;;;;;3.45;100.00;103030.75;4875556;29;20036;-63
2022/01/19 01:41:14;;;;;;;61.45;26.65;;;;;;;3.45;100.00;103033.38;4892662;29;20043;-63
2022/01/19 01:43:43;;;;;;;67.50;26.35;;;;;;;3.47;100.00;103029.94;4893577;29;20032;-63
2022/01/19 01:46:19;;;;;;;67.03;27.35;;;;;;;3.48;100.00;103009.88;4888271;29;20570;-64
2022/01/19 01:48:46;;;;;;;65.60;27.80;;;;;;;3.49;100.00;102993.31;4872558;29;20224;-63
2022/01/19 01:53:59;;;;;;;76.07;28.63;;;;;;;3.49;100.00;102962.75;4892899;29;20032;-64
2022/01/19 01:56:24;;;;;;;78.18;28.98;;;;;;;3.50;100.00;102951.41;4892800;29;20068;-64
2022/01/19 01:58:51;;;;;;;81.93;29.80;;;;;;;3.51;100.00;102947.06;4892993;29;20135;-63
2022/01/19 02:01:17;;;;;;;72.07;30.17;;;;;;;3.50;100.00;102953.16;4893460;29;20044;-64
2022/01/19 02:03:44;;;;;;;66.80;26.42;;;;;;;3.51;100.00;102952.31;4893653;29;20025;-63
2022/01/19 02:21:38;;;;;;;84.38;32.25;;;;;;;3.50;100.00;102926.97;4897048;29;20423;-64
2022/01/19 02:22:02;;;;;;;91.70;32.75;;;;;;;3.50;100.00;102913.88;4895378;29;20047;-63
2022/01/19 02:24:33;;;;;;;89.10;31.13;;;;;;;3.50;100.00;102903.41;4897038;29;20036;-63
2022/01/19 02:40:49;;;;;;;107.72;31.92;;;;;;;3.48;100.00;102892.03;4895141;29;20215;-63
2022/01/19 02:43:20;;;;;;;107.05;33.95;;;;;;;3.49;100.00;102886.78;4896203;29;20332;-63
2022/01/19 02:51:15;;;;;;;97.70;31.27;;;;;;;3.48;100.00;102869.31;4881822;29;20028;-63
2022/01/19 02:53:40;;;;;;;97.22;30.50;;;;;;;3.48;100.00;102860.59;4895977;29;20451;-63
2022/01/19 02:56:10;;;;;;;105.65;31.58;;;;;;;3.47;100.00;102853.56;4895355;29;20067;-63
2022/01/19 02:58:42;;;;;;;107.40;31.05;;;;;;;3.46;100.00;102838.72;4896238;29;20047;-63
2022/01/19 03:09:20;;;;;;;93.53;27.88;;;;;;;3.46;100.00;102839.63;4896343;29;20035;-63
2022/01/19 03:11:45;;;;;;;104.22;29.85;;;;;;;3.46;100.00;102831.75;4895402;29;21587;-63
2022/01/19 03:14:12;;;;;;;93.68;28.05;;;;;;;3.44;100.00;102830.84;4896012;29;20749;-63
2022/01/19 03:16:37;;;;;;;96.88;28.40;;;;;;;3.45;100.00;102826.47;4878333;29;20608;-63
2022/01/19 03:19:06;;;;;;;92.80;27.73;;;;;;;3.44;100.00;102836.09;4894828;29;20036;-63
2022/01/19 03:21:32;;;;;;;85.45;26.85;;;;;;;3.44;100.00;102832.59;4895218;29;20044;-63
2022/01/19 03:23:57;;;;;;;91.85;28.25;;;;;;;3.44;100.00;102828.25;4882505;29;20123;-63
2022/01/19 03:26:23;;;;;;;96.32;27.75;;;;;;;3.46;100.00;102838.72;4894779;29;20636;-63
2022/01/19 03:28:49;;;;;;;99.53;27.35;;;;;;;3.43;100.00;102836.91;4876374;29;20618;-63
2022/01/19 03:31:14;;;;;;;92.78;26.60;;;;;;;3.42;100.00;102824.69;4895245;29;20036;-64
2022/01/19 03:33:40;;;;;;;93.68;24.40;;;;;;;3.44;100.00;102824.72;4895286;29;20036;-64
2022/01/19 03:36:05;;;;;;;108.75;27.60;;;;;;;3.43;100.00;102815.97;4894205;29;20488;-64
2022/01/19 03:38:31;;;;;;;83.78;23.63;;;;;;;3.43;100.00;102818.59;4894462;29;20088;-64
2022/01/19 03:40:56;;;;;;;82.95;23.45;;;;;;;3.44;100.00;102824.72;4892663;29;20038;-64
2022/01/19 03:43:22;;;;;;;81.30;23.40;;;;;;;3.39;100.00;102817.66;4873210;29;20934;-64
2022/01/19 03:45:57;;;;;;;79.68;22.30;;;;;;;3.38;100.00;102815.03;4861638;29;20043;-64
2022/01/19 03:50:49;;;;;;;67.97;20.92;;;;;;;3.36;100.00;102822.88;4894233;29;20099;-64
2022/01/19 03:53:14;;;;;;;74.10;23.08;;;;;;;3.32;100.00;102815.81;4895608;29;20034;-64
2022/01/19 03:55:40;;;;;;;71.03;22.00;;;;;;;3.29;100.00;102818.38;4894704;29;20518;-64
2022/01/19 03:58:05;;;;;;;71.32;21.98;;;;;;;3.25;100.00;102809.59;4895497;29;20040;-64
2022/01/19 04:00:35;;;;;;;58.42;20.52;;;;;;;3.23;100.00;102805.19;4894057;29;20064;-64
2022/01/19 04:03:01;;;;;;;68.20;21.92;;;;;;;3.21;100.00;102796.44;4894919;29;20036;-64
2022/01/19 04:05:41;;;;;;;70.10;22.60;;;;;;;3.18;100.00;102801.59;4894154;29;20059;-64
2022/01/19 04:08:06;;;;;;;67.05;21.20;;;;;;;3.18;100.00;102791.13;4894709;29;20032;-64
2022/01/19 04:10:32;;;;;;;67.90;20.60;;;;;;;3.16;100.00;102793.72;4893818;29;20048;-64
2022/01/19 04:13:10;;;;;;;63.72;21.10;;;;;;;3.14;100.00;102792.81;4894811;29;20028;-64
2022/01/19 04:15:38;;;;;;;68.38;21.08;;;;;;;3.10;100.00;102794.50;4894294;29;20044;-64
2022/01/19 04:18:04;;;;;;;68.55;22.42;;;;;;;3.11;100.00;102792.78;4894384;29;20768;-64
2022/01/19 04:20:37;;;;;;;71.07;22.38;;;;;;;3.10;100.00;102801.47;4893575;29;20040;-63
2022/01/19 04:23:02;;;;;;;70.90;23.50;;;;;;;3.08;100.00;102791.00;4893856;29;20044;-64
2022/01/19 04:25:28;;;;;;;70.55;22.33;;;;;;;3.09;100.00;102781.38;4889429;29;20044;-64
2022/01/19 04:27:53;;;;;;;59.30;21.00;;;;;;;3.08;100.00;102783.13;4894681;29;20106;-64
2022/01/19 04:30:20;;;;;;;67.30;22.45;;;;;;;3.06;100.00;102784.81;4893000;29;20503;-64
2022/01/19 04:35:26;;;;;;;65.60;20.27;;;;;;;3.02;100.00;102777.78;4891681;29;20190;-64
2022/01/19 04:54:34;;;;;;;58.30;20.67;;;;;;;3.03;100.00;102716.75;4893945;29;20028;-64
2022/01/19 05:15:31;;;;;;;58.58;22.42;;;;;;;2.95;100.00;102689.56;4893790;29;20063;-64
2022/01/19 05:17:57;;;;;;;60.15;22.75;;;;;;;2.94;100.00;102687.81;4894281;29;20386;-64
2022/01/19 05:20:22;;;;;;;64.90;22.77;;;;;;;2.93;100.00;102688.66;4893547;29;20687;-65
2022/01/19 05:22:48;;;;;;;61.95;22.00;;;;;;;2.93;100.00;102692.16;4893637;29;20087;-64
2022/01/19 05:25:13;;;;;;;55.15;21.83;;;;;;;2.93;100.00;102689.53;4893615;29;20515;-64
2022/01/19 05:27:39;;;;;;;58.47;21.25;;;;;;;2.91;100.00;102680.78;4894230;29;20176;-64
2022/01/19 05:30:05;;;;;;;57.42;20.80;;;;;;;2.91;100.00;102666.81;4893985;29;20055;-64
2022/01/19 05:32:31;;;;;;;55.53;21.88;;;;;;;2.90;100.00;102658.09;4892288;29;20087;-64
2022/01/19 05:34:56;;;;;;;50.53;19.52;;;;;;;2.91;100.00;102651.13;4893419;29;20040;-64
2022/01/19 05:37:22;;;;;;;52.17;20.98;;;;;;;2.89;100.00;102647.59;4889788;29;20036;-64
2022/01/19 05:39:47;;;;;;;50.70;20.27;;;;;;;2.89;100.00;102638.00;4892795;29;20027;-64
2022/01/19 05:42:16;;;;;;;58.13;20.80;;;;;;;2.89;100.00;102645.00;4893013;29;20132;-64
2022/01/19 05:44:43;;;;;;;53.33;21.80;;;;;;;2.88;100.00;102641.47;4893045;29;20040;-64
2022/01/19 05:47:12;;;;;;;52.47;21.73;;;;;;;2.87;100.00;102634.50;4893015;29;20166;-64
2022/01/19 05:49:38;;;;;;;56.08;22.67;;;;;;;2.85;100.00;102631.84;4892615;29;20051;-65
2022/01/19 05:52:05;;;;;;;57.92;22.05;;;;;;;2.84;100.00;102629.22;4875110;29;20033;-65
2022/01/19 05:54:31;;;;;;;57.97;21.15;;;;;;;2.85;100.00;102628.38;4893274;29;20467;-62
2022/01/19 05:56:57;;;;;;;61.28;23.35;;;;;;;2.87;100.00;102608.31;4878363;29;20036;-63
2022/01/19 05:59:22;;;;;;;54.10;22.25;;;;;;;2.88;100.00;102607.47;4893935;29;20546;-63
2022/01/19 06:01:48;;;;;;;59.03;22.00;;;;;;;2.89;100.00;102593.53;4891910;29;20044;-62
2022/01/19 06:04:13;;;;;;;53.92;21.88;;;;;;;2.89;100.00;102590.91;4886081;29;20048;-63
2022/01/19 06:06:39;;;;;;;60.05;22.30;;;;;;;2.90;100.00;102589.19;4893018;29;20502;-66
2022/01/19 06:09:11;;;;;;;61.35;23.58;;;;;;;2.90;100.00;102577.00;4893380;29;20498;-63
2022/01/19 06:11:36;;;;;;;58.53;23.98;;;;;;;2.91;100.00;102581.38;4892947;29;20048;-63
2022/01/19 06:14:02;;;;;;;62.50;23.38;;;;;;;2.91;100.00;102572.63;4892885;29;20103;-62
2022/01/19 06:16:27;;;;;;;60.53;22.38;;;;;;;2.92;100.00;102561.28;4893226;29;20507;-63
2022/01/19 06:18:53;;;;;;;62.45;23.70;;;;;;;2.91;100.00;102562.16;4893745;29;20133;-63
2022/01/19 06:21:18;;;;;;;59.03;23.90;;;;;;;2.93;100.00;102565.66;4888448;29;20076;-63
2022/01/19 06:23:44;;;;;;;51.90;20.60;;;;;;;2.93;100.00;102556.09;4892234;29;20511;-63
2022/01/19 06:26:10;;;;;;;59.70;23.98;;;;;;;2.94;100.00;102551.75;4890788;29;20096;-63
2022/01/19 06:28:35;;;;;;;59.45;24.25;;;;;;;2.94;100.00;102543.91;4893113;29;20032;-63
2022/01/19 06:31:01;;;;;;;63.67;26.70;;;;;;;2.93;100.00;102537.78;4892156;29;20147;-64
2022/01/19 06:33:26;;;;;;;62.22;27.02;;;;;;;2.95;100.00;102528.19;4893633;29;20038;-64
2022/01/19 06:35:53;;;;;;;63.67;26.30;;;;;;;2.96;100.00;102524.72;4888801;29;20384;-65
2022/01/19 06:38:18;;;;;;;63.97;26.77;;;;;;;2.97;100.00;102517.75;4882001;29;20054;-65
2022/01/19 06:40:44;;;;;;;66.20;26.92;;;;;;;2.97;100.00;102508.19;4889814;29;20878;-63
2022/01/19 06:43:10;;;;;;;66.28;26.20;;;;;;;2.99;100.00;102513.41;4889302;29;21164;-67
2022/01/19 06:45:35;;;;;;;69.53;27.73;;;;;;;2.99;100.00;102514.31;4870751;29;20048;-63
2022/01/19 06:48:01;;;;;;;66.97;26.80;;;;;;;3.01;100.00;102511.72;4889696;29;20427;-63
2022/01/19 06:50:28;;;;;;;60.83;25.95;;;;;;;3.01;100.00;102514.34;4889298;29;20028;-64
2022/01/19 06:52:53;;;;;;;71.97;27.17;;;;;;;3.02;100.00;102512.56;4889666;29;20052;-63
2022/01/19 06:55:19;;;;;;;71.53;26.42;;;;;;;3.04;100.00;102505.66;4892585;29;20039;-63
2022/01/19 06:57:45;;;;;;;76.47;30.35;;;;;;;3.04;100.00;102501.28;4872805;29;20103;-64
2022/01/19 07:00:11;;;;;;;73.50;28.65;;;;;;;3.03;100.00;102496.91;4893228;29;20537;-63
2022/01/19 07:02:37;;;;;;;66.07;26.92;;;;;;;3.03;100.00;102491.66;4894003;29;20087;-63
2022/01/19 07:05:04;;;;;;;64.20;27.38;;;;;;;3.04;100.00;102496.03;4892836;29;20044;-63
2022/01/19 07:07:30;;;;;;;65.55;28.05;;;;;;;3.05;100.00;102492.56;4893354;29;20453;-63
2022/01/19 07:09:56;;;;;;;65.65;28.13;;;;;;;3.05;100.00;102482.09;4892078;29;20052;-63
2022/01/19 07:12:21;;;;;;;68.70;27.67;;;;;;;3.06;100.00;102468.13;4890987;29;20040;-64
2022/01/19 07:14:47;;;;;;;68.13;28.00;;;;;;;3.08;100.00;102460.31;4892989;29;20070;-64
2022/01/19 07:17:12;;;;;;;70.10;28.60;;;;;;;3.09;100.00;102460.34;4892597;29;20594;-65
2022/01/19 07:19:38;;;;;;;64.38;26.83;;;;;;;3.09;100.00;102451.59;4892146;29;20036;-65
2022/01/19 07:22:03;;;;;;;67.88;28.40;;;;;;;3.10;100.00;102455.97;4886244;29;20062;-65
2022/01/19 07:24:29;;;;;;;66.13;26.40;;;;;;;3.10;100.00;102450.75;4891253;29;20071;-64
2022/01/19 07:26:54;;;;;;;70.32;29.33;;;;;;;3.10;100.00;102445.50;4892334;29;20032;-64
2022/01/19 07:29:20;;;;;;;67.57;27.20;;;;;;;3.11;100.00;102448.16;4892771;29;20083;-64
2022/01/19 07:31:45;;;;;;;71.53;29.17;;;;;;;3.12;100.00;102442.03;4889958;29;20483;-64
2022/01/19 07:34:11;;;;;;;66.57;28.90;;;;;;;3.14;100.00;102441.22;4895340;29;20522;-64
2022/01/19 07:36:37;;;;;;;63.85;27.02;;;;;;;3.15;100.00;102437.72;4894290;29;20076;-64
2022/01/19 07:39:03;;;;;;;65.53;27.27;;;;;;;3.14;100.00;102415.03;4895718;29;20118;-62
2022/01/19 07:41:29;;;;;;;69.65;28.45;;;;;;;3.15;100.00;102404.56;4894844;29;20040;-62
2022/01/19 07:43:54;;;;;;;72.43;28.67;;;;;;;3.15;100.00;102393.22;4894313;29;21990;-63
2022/01/19 07:46:20;;;;;;;76.20;29.73;;;;;;;3.15;100.00;102393.22;4895060;29;20755;-63
2022/01/19 07:48:46;;;;;;;80.72;29.40;;;;;;;3.16;100.00;102390.59;4879468;29;20040;-64
2022/01/19 07:51:11;;;;;;;74.25;30.05;;;;;;;3.16;100.00;102374.03;4895676;29;20036;-63
2022/01/19 07:53:37;;;;;;;77.43;28.70;;;;;;;3.16;100.00;102374.91;4892476;29;20036;-63
2022/01/19 07:56:04;;;;;;;72.03;29.23;;;;;;;3.16;100.00;102360.97;4895901;29;20079;-63
2022/01/19 07:58:29;;;;;;;71.95;29.33;;;;;;;3.17;100.00;102360.09;4894979;29;20127;-63
2022/01/19 08:00:55;;;;;;;73.40;29.20;;;;;;;3.18;100.00;102354.88;4894500;29;20476;-64
2022/01/19 08:03:20;;;;;;;75.10;30.95;;;;;;;3.19;100.00;102359.25;4895140;29;20079;-64
2022/01/19 08:05:46;;;;;;;76.43;30.00;;;;;;;3.19;100.00;102353.13;4894706;29;20340;-63
2022/01/19 08:08:11;;;;;;;75.35;29.17;;;;;;;3.20;100.00;102353.16;4895272;29;20146;-64
2022/01/19 08:10:37;;;;;;;79.75;30.63;;;;;;;3.23;100.00;102354.91;4893336;29;20595;-63
2022/01/19 08:13:04;;;;;;;73.70;29.55;;;;;;;3.23;100.00;102350.53;4895149;29;20040;-63
2022/01/19 08:15:30;;;;;;;71.25;30.45;;;;;;;3.25;100.00;102347.94;4894155;29;20103;-63
2022/01/19 08:17:56;;;;;;;82.68;30.25;;;;;;;3.28;100.00;102348.00;4892755;29;20031;-65
2022/01/19 08:20:22;;;;;;;79.00;29.17;;;;;;;3.30;100.00;102345.38;4886552;29;21486;-64
2022/01/19 08:22:47;;;;;;;72.22;29.40;;;;;;;3.31;100.00;102327.06;4892476;29;20664;-64
2022/01/19 08:25:13;;;;;;;77.65;30.38;;;;;;;3.34;100.00;102321.88;4888363;29;20048;-64
2022/01/19 08:27:39;;;;;;;74.95;29.05;;;;;;;3.36;100.00;102317.50;4878296;29;20196;-63
2022/01/19 08:30:07;;;;;;;77.60;31.60;;;;;;;3.38;100.00;102310.53;4890869;29;21632;-64
2022/01/19 08:32:35;;;;;;;84.70;31.92;;;;;;;3.42;100.00;102307.97;4872556;29;20108;-64
2022/01/19 08:35:02;;;;;;;77.88;31.63;;;;;;;3.44;100.00;102309.72;4892644;29;20036;-64
2022/01/19 08:37:28;;;;;;;74.00;31.67;;;;;;;3.47;100.00;102306.22;4890622;29;20407;-63
2022/01/19 08:39:53;;;;;;;75.60;31.15;;;;;;;3.48;100.00;102308.88;4893593;29;20032;-65
2022/01/19 08:42:19;;;;;;;73.03;30.05;;;;;;;3.52;100.00;102315.00;4873550;29;20028;-64
2022/01/19 08:44:44;;;;;;;78.57;31.05;;;;;;;3.53;100.00;102311.53;4892810;29;20148;-64
2022/01/19 08:47:10;;;;;;;82.30;31.02;;;;;;;3.56;100.00;102303.69;4892245;29;20095;-63
2022/01/19 08:49:36;;;;;;;80.55;31.25;;;;;;;3.58;100.00;102294.09;4892341;29;20044;-63
2022/01/19 08:52:03;;;;;;;75.65;29.63;;;;;;;3.62;100.00;102289.75;4889536;29;20472;-64
2022/01/19 08:54:28;;;;;;;80.30;30.63;;;;;;;3.61;100.00;102286.28;4891429;29;20079;-63
2022/01/19 08:56:54;;;;;;;72.57;30.80;;;;;;;3.64;100.00;102288.03;4891130;29;20159;-63
2022/01/19 08:59:20;;;;;;;82.32;32.13;;;;;;;3.65;100.00;102290.66;4892529;29;20124;-64
2022/01/19 09:01:46;;;;;;;83.00;31.02;;;;;;;3.66;100.00;102286.31;4890642;29;20071;-65
2022/01/19 09:04:11;;;;;;;80.35;32.75;;;;;;;3.70;100.00;102289.81;4893294;29;20577;-65
2022/01/19 09:06:37;;;;;;;84.10;32.75;;;;;;;3.70;100.00;102287.19;4866489;29;20383;-63
2022/01/19 09:09:02;;;;;;;74.45;31.63;;;;;;;3.70;100.00;102276.72;4893426;29;20558;-63
2022/01/19 09:11:28;;;;;;;83.90;33.15;;;;;;;3.71;100.00;102265.38;4890844;29;20048;-64
2022/01/19 09:13:54;;;;;;;81.20;32.60;;;;;;;3.72;100.00;102270.63;4889113;29;20032;-66
2022/01/19 09:16:19;;;;;;;85.75;34.30;;;;;;;3.73;100.00;102264.53;4888277;29;20047;-64
2022/01/19 09:18:45;;;;;;;86.18;34.38;;;;;;;3.75;100.00;102249.69;4887318;29;20277;-63
2022/01/19 09:21:11;;;;;;;82.82;34.10;;;;;;;3.77;100.00;102249.69;4888561;29;20254;-65
2022/01/19 09:23:37;;;;;;;80.95;33.38;;;;;;;3.78;100.00;102239.22;4884921;29;21212;-65
2022/01/19 09:26:03;;;;;;;87.82;33.70;;;;;;;3.80;100.00;102232.25;4889947;29;20471;-65
2022/01/19 09:28:29;;;;;;;92.35;35.13;;;;;;;3.80;100.00;102227.00;4888160;29;20068;-64
2022/01/19 09:30:59;;;;;;;86.85;34.72;;;;;;;3.81;100.00;102214.75;4884250;29;20164;-64
2022/01/19 09:33:28;;;;;;;91.00;34.38;;;;;;;3.82;100.00;102213.91;4887782;29;20035;-65
2022/01/19 09:38:24;;;;;;;83.28;34.42;;;;;;;3.85;100.00;102213.91;4888740;29;20732;-64
2022/01/19 09:40:50;;;;;;;90.38;34.55;;;;;;;3.84;100.00;102214.78;4888836;29;20070;-65
2022/01/19 09:43:17;;;;;;;84.72;34.42;;;;;;;3.85;100.00;102219.16;4887584;29;20147;-65
2022/01/19 09:45:43;;;;;;;90.03;33.60;;;;;;;3.85;100.00;102219.16;4887431;29;20192;-65
2022/01/19 09:48:09;;;;;;;86.28;34.92;;;;;;;3.86;100.00;102215.66;4887871;29;20027;-64
2022/01/19 09:50:35;;;;;;;93.18;35.60;;;;;;;3.87;100.00;102227.03;4889349;29;20039;-64
2022/01/19 09:53:05;;;;;;;83.40;34.50;;;;;;;3.87;100.00;102227.03;4888770;29;20345;-64
2022/01/19 09:55:31;;;;;;;88.07;37.53;;;;;;;3.87;100.00;102222.66;4888507;29;20558;-65
2022/01/19 09:57:57;;;;;;;83.85;35.22;;;;;;;3.88;100.00;102210.44;4890837;29;20429;-65
2022/01/19 10:00:22;;;;;;;89.63;35.70;;;;;;;3.88;100.00;102203.44;4890566;29;20115;-65
2022/01/19 10:03:13;;;;;;;86.45;34.63;;;;;;;3.89;100.00;102207.84;4889927;29;20051;-65
2022/01/19 10:05:52;;;;;;;92.07;35.83;;;;;;;3.90;100.00;102204.34;4889163;29;20028;-65
2022/01/19 10:08:45;;;;;;;80.57;34.40;;;;;;;3.90;100.00;102209.59;4871021;29;20028;-64
2022/01/19 10:11:27;;;;;;;83.00;33.75;;;;;;;3.92;100.00;102196.50;4870164;29;20040;-64
2022/01/19 10:17:13;;;;;;;78.63;34.47;;;;;;;3.97;100.00;102193.88;4890394;29;20190;-64
2022/01/19 10:19:50;;;;;;;77.78;33.45;;;;;;;3.98;100.00;102185.16;4863508;29;20674;-65
2022/01/19 10:22:26;;;;;;;83.90;33.55;;;;;;;3.99;100.00;102172.06;4884460;29;20682;-65
2022/01/19 10:25:09;;;;;;;77.00;33.38;;;;;;;4.02;100.00;102171.16;4888048;29;20820;-64
2022/01/19 10:27:40;;;;;;;85.38;35.42;;;;;;;4.05;100.00;102171.19;4887813;29;20036;-64
2022/01/19 10:30:05;;;;;;;74.82;32.72;;;;;;;4.07;100.00;102156.34;4892204;29;20039;-64
2022/01/19 10:32:30;;;;;;;73.63;32.13;;;;;;;4.10;100.00;102161.59;4892682;29;20036;-64
2022/01/19 10:34:57;;;;;;;84.22;34.75;;;;;;;4.14;100.00;102157.25;4892001;29;20801;-63
2022/01/19 10:37:27;;;;;;;83.57;35.78;;;;;;;4.19;100.00;102156.38;4890027;29;20176;-64
2022/01/19 10:39:57;;;;;;;85.47;33.55;;;;;;;4.24;100.00;102152.91;4890857;29;20032;-64
2022/01/19 10:42:27;;;;;;;83.82;34.95;;;;;;;4.28;100.00;102138.91;4891265;29;20048;-64
2022/01/19 10:44:55;;;;;;;84.65;36.10;;;;;;;4.31;100.00;102129.31;4892042;29;20050;-64
2022/01/19 10:47:47;;;;;;;77.15;33.70;;;;;;;4.37;100.00;102120.59;4891314;29;20598;-64
2022/01/19 10:50:30;;;;;;;82.90;35.67;;;;;;;4.41;100.00;102122.31;4892828;29;20047;-64
2022/01/19 10:53:01;;;;;;;87.07;35.92;;;;;;;4.46;100.00;102112.72;4892870;29;20041;-64
2022/01/19 10:55:30;;;;;;;82.57;34.85;;;;;;;4.52;100.00;102113.59;4892834;29;20069;-64
2022/01/19 10:57:58;;;;;;;85.90;35.85;;;;;;;4.56;100.00;102102.22;4893453;29;20111;-64
2022/01/19 11:00:31;;;;;;;82.80;36.25;;;;;;;4.58;100.00;102093.47;4892425;29;20036;-64
2022/01/19 11:03:02;;;;;;;77.22;34.92;;;;;;;4.61;100.00;102090.88;4890339;29;20039;-64
2022/01/19 11:05:52;;;;;;;86.85;36.03;;;;;;;4.68;100.00;102091.72;4866897;29;20047;-64
2022/01/19 11:08:19;;;;;;;76.05;34.60;;;;;;;4.78;100.00;102086.50;4892786;29;20051;-65
2022/01/19 11:10:49;;;;;;;91.30;37.38;;;;;;;4.85;100.00;102077.72;4891428;29;20044;-64
2022/01/19 11:13:28;;;;;;;90.85;39.35;;;;;;;4.95;100.00;102078.59;4875376;29;20135;-64
2022/01/19 11:15:58;;;;;;;83.72;36.42;;;;;;;5.06;100.00;102063.66;4891336;29;20039;-63
2022/01/19 11:18:29;;;;;;;80.93;34.65;;;;;;;5.16;100.00;102064.50;4891411;29;20055;-64
2022/01/19 11:20:58;;;;;;;81.10;37.00;;;;;;;5.26;100.00;102057.47;4890382;29;20032;-64
2022/01/19 11:23:31;;;;;;;72.78;34.13;;;;;;;5.35;100.00;102049.59;4891334;29;20174;-64
2022/01/19 11:26:00;;;;;;;73.65;34.60;;;;;;;5.47;100.00;102030.25;4890990;29;20079;-67
2022/01/19 11:28:39;;;;;;;77.47;33.85;;;;;;;5.55;100.00;102030.19;4892150;29;20051;-64
2022/01/19 11:31:13;;;;;;;72.97;32.97;;;;;;;5.61;100.00;102048.56;4892190;29;20047;-64
2022/01/19 11:34:00;;;;;;;65.45;31.45;;;;;;;5.64;100.00;102048.56;4892670;29;20459;-64
2022/01/19 11:36:34;;;;;;;65.25;30.08;;;;;;;5.62;100.00;102037.16;4891647;29;20044;-64
2022/01/19 11:39:23;;;;;;;63.17;31.25;;;;;;;5.62;100.00;102031.06;4892641;29;20499;-64
2022/01/19 11:41:50;;;;;;;67.05;30.73;;;;;;;5.60;100.00;102020.53;4886433;29;20122;-65
2022/01/19 11:44:20;;;;;;;70.55;32.03;;;;;;;5.60;100.00;102009.19;4890155;29;20663;-64
2022/01/19 11:46:49;;;;;;;71.82;33.35;;;;;;;5.58;100.00;102004.78;4891278;29;20039;-64
2022/01/19 11:49:18;;;;;;;67.70;31.15;;;;;;;5.55;100.00;102007.44;4875265;29;20453;-64
2022/01/19 11:51:54;;;;;;;63.17;31.15;;;;;;;5.53;100.00;101998.72;4891484;29;20047;-64
2022/01/19 11:54:31;;;;;;;69.38;30.90;;;;;;;5.53;100.00;101993.44;4874666;29;20096;-64
2022/01/19 11:56:59;;;;;;;65.47;29.23;;;;;;;5.52;100.00;101990.81;4892091;29;20040;-64
2022/01/19 11:59:26;;;;;;;59.88;28.92;;;;;;;5.51;100.00;101984.69;4892217;29;20726;-64
2022/01/19 12:01:52;;;;;;;63.20;29.42;;;;;;;5.51;100.00;101983.84;4892230;29;20036;-64
2022/01/19 12:04:22;;;;;;;61.42;29.17;;;;;;;5.49;100.00;101968.06;4858660;29;20455;-64
2022/01/19 12:06:48;;;;;;;62.15;28.90;;;;;;;5.49;100.00;101952.31;4890155;29;20559;-65
2022/01/19 12:09:16;;;;;;;58.35;28.63;;;;;;;5.49;100.00;101946.19;4891145;29;20134;-64
2022/01/19 12:11:49;;;;;;;54.40;25.50;;;;;;;5.50;100.00;101929.56;4891202;29;20578;-64
2022/01/19 12:14:20;;;;;;;;;;;;;;;5.49;100.00;101931.28;4892035;29;20040;-65
2022/01/19 12:16:56;;;;;;;50.25;21.67;;;;;;;5.48;100.00;101919.03;4873219;29;20126;-64
2022/01/19 12:19:24;;;;;;;44.63;18.67;;;;;;;5.47;100.00;101919.94;4887967;29;20568;-63
2022/01/19 12:22:06;;;;;;;37.40;17.40;;;;;;;5.48;100.00;101905.91;4883552;29;20028;-63
2022/01/19 12:24:56;;;;;;;30.42;12.63;;;;;;;5.48;100.00;101907.66;4846925;29;20040;-64
2022/01/19 12:27:28;;;;;;;22.48;10.35;;;;;;;5.47;100.00;101895.41;4889221;29;20051;-64
2022/01/19 12:30:11;;;;;;;23.25;10.43;;;;;;;5.48;100.00;101871.75;4892367;29;20039;-65
2022/01/19 12:32:41;;;;;;;23.35;9.90;;;;;;;5.51;100.00;101871.72;4891227;29;20122;-65
2022/01/19 12:35:15;;;;;;;23.17;9.63;;;;;;;5.53;100.00;101863.84;4891886;29;20134;-65
2022/01/19 12:37:47;;;;;;;23.65;9.18;;;;;;;5.54;100.00;101857.69;4894298;29;20453;-65
2022/01/19 12:40:12;;;;;;;23.42;9.48;;;;;;;5.55;100.00;101857.69;4893118;29;20487;-65
2022/01/19 12:42:46;;;;;;;24.00;8.70;;;;;;;5.54;100.00;101852.44;4894755;29;20102;-66
2022/01/19 12:45:30;;;;;;;26.90;9.07;;;;;;;5.56;100.00;101845.44;4894616;29;21583;-64